createdAt,value
2023-03-01T00:01:20.287Z,38.50
2023-03-01T00:03:48.475Z,35.90
2023-03-01T00:06:16.408Z,34.20
2023-03-01T00:08:44.032Z,36.40
2023-03-01T00:11:14.050Z,37.00
2023-03-01T00:13:43.122Z,34.60
2023-03-01T00:16:16.304Z,33.60
2023-03-01T00:18:44.395Z,33.90
2023-03-01T00:21:12.611Z,32.50
2023-03-01T00:23:40.708Z,32.80
2023-03-01T00:26:10.670Z,33.10
2023-03-01T00:28:38.948Z,33.20
2023-03-01T00:31:15.407Z,31.30
2023-03-01T00:33:43.462Z,32.00
2023-03-01T00:36:13.062Z,33.30
2023-03-01T00:38:45.617Z,32.20
2023-03-01T00:41:15.829Z,33.20
2023-03-01T00:43:44.021Z,32.50
2023-03-01T00:46:14.179Z,32.00
2023-03-01T00:48:42.515Z,33.50
2023-03-01T00:51:11.843Z,30.00
2023-03-01T00:53:40.170Z,30.30
2023-03-01T00:56:10.200Z,32.00
2023-03-01T00:58:38.147Z,29.10
2023-03-01T01:01:20.784Z,30.80
2023-03-01T01:03:52.394Z,29.80
2023-03-01T01:06:34.390Z,31.80
2023-03-01T01:09:03.127Z,33.10
2023-03-01T01:11:31.172Z,34.50
2023-03-01T01:14:00.254Z,33.30
2023-03-01T01:16:29.349Z,36.70
2023-03-01T01:18:57.560Z,35.00
2023-03-01T01:21:26.557Z,35.80
2023-03-01T01:23:55.004Z,37.20
2023-03-01T01:26:28.461Z,36.10
2023-03-01T01:28:56.780Z,36.50
2023-03-01T01:31:26.670Z,36.20
2023-03-01T01:33:56.715Z,35.00
2023-03-01T01:36:25.542Z,34.40
2023-03-01T01:38:53.401Z,35.10
2023-03-01T01:41:22.764Z,36.30
2023-03-01T01:44:11.710Z,38.60
2023-03-01T01:46:52.702Z,37.50
2023-03-01T01:49:26.673Z,36.70
2023-03-01T01:52:02.757Z,35.60
2023-03-01T01:54:40.519Z,37.40
2023-03-01T01:57:12.374Z,38.10
2023-03-01T01:59:42.198Z,37.50
2023-03-01T02:02:10.018Z,38.60
2023-03-01T02:04:37.616Z,36.10
2023-03-01T02:07:18.203Z,37.30
2023-03-01T02:09:50.857Z,39.20
2023-03-01T02:12:22.075Z,38.80
2023-03-01T02:14:49.851Z,35.90
2023-03-01T02:17:18.850Z,34.50
2023-03-01T02:20:16.128Z,32.60
2023-03-01T02:22:45.432Z,31.10
2023-03-01T02:25:30.186Z,29.60
2023-03-01T02:28:19.211Z,29.50
2023-03-01T02:31:08.978Z,30.10
2023-03-01T02:33:39.536Z,28.40
2023-03-01T02:36:31.711Z,28.30
2023-03-01T02:39:00.668Z,27.80
2023-03-01T02:41:29.926Z,28.90
2023-03-01T02:43:57.680Z,29.50
2023-03-01T02:46:26.793Z,28.20
2023-03-01T02:48:59.108Z,28.10
2023-03-01T02:51:43.153Z,27.40
2023-03-01T02:54:29.954Z,28.50
2023-03-01T02:56:59.263Z,28.40
2023-03-01T02:59:30.924Z,29.90
2023-03-01T03:01:58.540Z,30.70
2023-03-01T03:04:26.252Z,30.40
2023-03-01T03:06:53.852Z,30.80
2023-03-01T03:09:21.506Z,30.20
2023-03-01T03:11:49.391Z,30.40
2023-03-01T03:14:18.076Z,30.80
2023-03-01T03:16:49.865Z,30.40
2023-03-01T03:19:19.396Z,29.30
2023-03-01T03:21:47.645Z,29.50
2023-03-01T03:24:15.276Z,29.40
2023-03-01T03:26:42.920Z,28.20
2023-03-01T03:29:10.522Z,29.30
2023-03-01T03:31:38.153Z,28.40
2023-03-01T03:34:05.900Z,28.50
2023-03-01T03:36:33.491Z,28.30
2023-03-01T03:39:01.110Z,29.20
2023-03-01T03:41:28.770Z,29.40
2023-03-01T03:43:56.432Z,29.50
2023-03-01T03:46:24.027Z,29.90
2023-03-01T03:48:51.688Z,29.30
2023-03-01T03:51:19.797Z,29.30
2023-03-01T03:53:47.473Z,30.50
2023-03-01T03:56:15.612Z,29.80
2023-03-01T03:58:43.291Z,30.70
2023-03-01T04:01:10.909Z,29.10
2023-03-01T04:03:38.581Z,29.40
2023-03-01T04:06:07.051Z,30.60
2023-03-01T04:08:34.717Z,29.60
2023-03-01T04:11:30.217Z,30.20
2023-03-01T04:13:59.408Z,30.50
2023-03-01T04:16:27.258Z,29.80
2023-03-01T04:18:54.995Z,30.90
2023-03-01T04:21:23.054Z,30.10
2023-03-01T04:23:53.543Z,30.50
2023-03-01T04:26:21.523Z,30.60
2023-03-01T04:28:51.031Z,31.40
2023-03-01T04:31:22.067Z,31.40
2023-03-01T04:33:52.624Z,31.20
2023-03-01T04:36:23.752Z,31.00
2023-03-01T04:38:51.522Z,31.40
2023-03-01T04:41:20.907Z,32.60
2023-03-01T04:43:49.644Z,30.00
2023-03-01T04:46:20.621Z,30.10
2023-03-01T04:48:48.619Z,27.80
2023-03-01T04:51:17.071Z,29.00
2023-03-01T04:53:45.500Z,28.30
2023-03-01T04:56:14.889Z,27.40
2023-03-01T04:58:43.033Z,27.30
2023-03-01T05:01:16.652Z,28.30
2023-03-01T05:03:45.910Z,29.00
2023-03-01T05:06:14.468Z,28.20
2023-03-01T05:08:43.132Z,32.50
2023-03-01T05:11:11.661Z,30.40
2023-03-01T05:13:40.201Z,29.40
2023-03-01T05:16:12.286Z,30.50
2023-03-01T05:18:41.330Z,30.50
2023-03-01T05:21:16.867Z,30.30
2023-03-01T05:23:45.418Z,30.70
2023-03-01T05:26:27.380Z,31.60
2023-03-01T05:29:00.238Z,33.20
2023-03-01T05:31:29.112Z,33.30
2023-03-01T05:33:56.826Z,32.90
2023-03-01T05:36:24.523Z,34.90
2023-03-01T05:38:52.103Z,36.90
2023-03-01T05:41:19.738Z,38.50
2023-03-01T05:43:47.329Z,38.90
2023-03-01T05:46:16.269Z,37.50
2023-03-01T05:48:44.739Z,36.90
2023-03-01T05:51:13.154Z,38.70
2023-03-01T05:53:40.886Z,38.90
2023-03-01T05:56:08.778Z,41.50
2023-03-01T05:58:36.390Z,40.80
2023-03-01T06:01:04.111Z,40.90
2023-03-01T06:03:31.781Z,40.20
2023-03-01T06:05:59.617Z,41.80
2023-03-01T06:08:28.327Z,40.30
2023-03-01T06:10:56.774Z,41.40
2023-03-01T06:13:25.361Z,42.00
2023-03-01T06:15:53.169Z,44.30
2023-03-01T06:18:20.994Z,45.00
2023-03-01T06:20:56.786Z,44.50
2023-03-01T06:23:25.212Z,44.00
2023-03-01T06:25:53.223Z,42.40
2023-03-01T06:28:21.355Z,39.30
2023-03-01T06:30:50.505Z,42.50
2023-03-01T06:33:21.031Z,42.80
2023-03-01T06:35:48.675Z,43.40
2023-03-01T06:38:18.418Z,42.00
2023-03-01T06:40:46.537Z,43.90
2023-03-01T06:43:14.157Z,44.20
2023-03-01T06:45:42.639Z,41.70
2023-03-01T06:48:10.279Z,42.40
2023-03-01T06:50:39.225Z,42.30
2023-03-01T06:53:07.120Z,39.70
2023-03-01T06:55:34.930Z,39.80
2023-03-01T06:58:04.039Z,39.90
2023-03-01T07:00:32.178Z,38.20
2023-03-01T07:03:01.488Z,39.40
2023-03-01T07:05:30.603Z,34.70
2023-03-01T07:07:58.399Z,34.90
2023-03-01T07:10:26.101Z,34.10
2023-03-01T07:13:00.055Z,33.10
2023-03-01T07:15:29.613Z,34.10
2023-03-01T07:17:57.460Z,33.00
2023-03-01T07:20:26.297Z,31.80
2023-03-01T07:22:55.532Z,30.90
2023-03-01T07:25:23.364Z,32.40
2023-03-01T07:27:53.021Z,32.20
2023-03-01T07:30:21.861Z,33.70
2023-03-01T07:32:49.740Z,35.80
2023-03-01T07:35:17.672Z,33.40
2023-03-01T07:37:45.307Z,33.40
2023-03-01T07:40:13.471Z,34.00
2023-03-01T07:42:41.216Z,34.80
2023-03-01T07:45:09.649Z,33.90
2023-03-01T07:47:37.558Z,35.10
2023-03-01T07:50:06.427Z,34.80
2023-03-01T07:52:34.081Z,33.10
2023-03-01T07:55:01.711Z,33.20
2023-03-01T07:57:29.345Z,34.30
2023-03-01T07:59:57.181Z,33.00
2023-03-01T08:02:24.804Z,31.20
2023-03-01T08:04:52.443Z,31.70
2023-03-01T08:07:20.063Z,32.70
2023-03-01T08:09:47.651Z,32.40
2023-03-01T08:12:17.238Z,33.70
2023-03-01T08:14:44.935Z,31.80
2023-03-01T08:17:15.397Z,31.80
2023-03-01T08:19:44.099Z,33.50
2023-03-01T08:22:11.821Z,32.40
2023-03-01T08:24:39.431Z,30.70
2023-03-01T08:27:07.124Z,32.80
2023-03-01T08:29:34.794Z,32.80
2023-03-01T08:32:02.489Z,32.40
2023-03-01T08:34:32.172Z,31.40
2023-03-01T08:36:59.828Z,31.60
2023-03-01T08:39:28.038Z,32.40
2023-03-01T08:41:55.693Z,31.90
2023-03-01T08:44:23.347Z,30.90
2023-03-01T08:46:52.461Z,32.00
2023-03-01T08:49:20.974Z,29.10
2023-03-01T08:51:49.015Z,29.40
2023-03-01T08:54:19.979Z,31.70
2023-03-01T08:56:48.202Z,28.90
2023-03-01T08:59:18.184Z,27.10
2023-03-01T09:01:45.874Z,24.70
2023-03-01T09:04:15.278Z,25.00
2023-03-01T09:06:43.180Z,24.40
2023-03-01T09:09:16.962Z,24.80
2023-03-01T09:11:47.107Z,24.60
2023-03-01T09:14:15.473Z,23.30
2023-03-01T09:16:43.510Z,22.50
2023-03-01T09:19:12.313Z,23.70
2023-03-01T09:21:41.225Z,22.70
2023-03-01T09:24:14.484Z,24.50
2023-03-01T09:26:42.753Z,23.70
2023-03-01T09:29:10.679Z,23.50
2023-03-01T09:31:39.111Z,23.90
2023-03-01T09:34:07.366Z,23.10
2023-03-01T09:36:35.073Z,23.90
2023-03-01T09:39:03.634Z,23.30
2023-03-01T09:41:50.144Z,22.20
2023-03-01T09:44:41.473Z,22.90
2023-03-01T09:47:30.275Z,23.90
2023-03-01T09:50:10.595Z,25.20
2023-03-01T09:52:47.708Z,22.40
2023-03-01T09:55:19.011Z,14.40
2023-03-01T09:58:01.127Z,13.90
2023-03-01T10:00:42.138Z,15.00
2023-03-01T10:03:27.689Z,16.50
2023-03-01T10:06:01.969Z,14.80
2023-03-01T10:08:37.155Z,13.60
2023-03-01T10:11:07.498Z,14.90
2023-03-01T10:13:54.977Z,12.80
2023-03-01T10:16:27.748Z,14.20
2023-03-01T10:19:01.790Z,13.80
2023-03-01T10:21:32.468Z,13.10
2023-03-01T10:24:13.555Z,13.90
2023-03-01T10:27:03.152Z,13.60
2023-03-01T10:30:22.676Z,12.60
2023-03-01T10:32:52.578Z,12.10
2023-03-01T10:35:26.067Z,12.40
2023-03-01T10:38:05.045Z,12.00
2023-03-01T10:40:34.098Z,11.20
2023-03-01T10:43:04.318Z,11.90
2023-03-01T10:45:38.580Z,11.60
2023-03-01T10:48:16.931Z,10.20
2023-03-01T10:50:50.090Z,10.20
2023-03-01T10:53:21.701Z,9.10
2023-03-01T10:55:58.111Z,9.00
2023-03-01T10:58:25.719Z,10.10
2023-03-01T11:01:20.702Z,10.00
2023-03-01T11:04:13.754Z,10.50
2023-03-01T11:06:42.588Z,8.80
2023-03-01T11:09:16.772Z,9.30
2023-03-01T11:11:45.249Z,10.00
2023-03-01T11:14:28.914Z,8.60
2023-03-01T11:17:06.207Z,10.10
2023-03-01T11:19:34.372Z,9.80
2023-03-01T11:22:06.977Z,9.90
2023-03-01T11:25:09.015Z,9.60
2023-03-01T11:27:40.245Z,9.90
2023-03-01T11:31:01.839Z,9.80
2023-03-01T11:34:11.379Z,9.90
2023-03-01T11:36:47.516Z,9.50
2023-03-01T11:39:37.573Z,9.10
2023-03-01T11:42:18.815Z,9.10
2023-03-01T11:44:53.087Z,9.00
2023-03-01T11:47:49.828Z,9.50
2023-03-01T11:50:30.054Z,9.30
2023-03-01T11:53:20.129Z,7.70
2023-03-01T11:56:19.942Z,8.20
2023-03-01T11:58:57.404Z,8.80
2023-03-01T12:01:41.755Z,7.60
2023-03-01T12:04:32.003Z,9.80
2023-03-01T12:07:20.594Z,8.80
2023-03-01T12:10:10.003Z,7.90
2023-03-01T12:12:46.268Z,8.10
2023-03-01T12:15:27.448Z,7.60
2023-03-01T12:18:14.398Z,9.20
2023-03-01T12:21:00.672Z,23.60
2023-03-01T12:23:56.934Z,9.50
2023-03-01T12:26:28.234Z,10.20
2023-03-01T12:29:21.377Z,8.20
2023-03-01T12:32:06.500Z,7.60
2023-03-01T12:34:53.227Z,7.50
2023-03-01T12:37:31.924Z,7.50
2023-03-01T12:40:18.980Z,7.30
2023-03-01T12:42:59.092Z,8.30
2023-03-01T12:45:42.540Z,7.50
2023-03-01T12:48:29.465Z,7.60
2023-03-01T12:51:01.260Z,6.80
2023-03-01T12:53:47.843Z,7.20
2023-03-01T12:56:21.123Z,7.10
2023-03-01T12:59:17.270Z,7.00
2023-03-01T13:02:12.975Z,6.50
2023-03-01T13:05:12.454Z,7.20
2023-03-01T13:07:50.318Z,7.00
2023-03-01T13:10:57.493Z,11.40
2023-03-01T13:13:27.088Z,9.90
2023-03-01T13:15:55.751Z,7.50
2023-03-01T13:18:24.265Z,10.20
2023-03-01T13:20:58.236Z,8.60
2023-03-01T13:23:35.317Z,7.40
2023-03-01T13:26:16.743Z,7.80
2023-03-01T13:28:57.041Z,7.10
2023-03-01T13:31:27.513Z,7.70
2023-03-01T13:33:56.820Z,8.20
2023-03-01T13:36:31.521Z,8.30
2023-03-01T13:39:01.579Z,8.30
2023-03-01T13:41:44.930Z,7.90
2023-03-01T13:44:37.168Z,8.10
2023-03-01T13:47:08.095Z,9.10
2023-03-01T13:49:53.266Z,9.30
2023-03-01T13:52:45.781Z,9.20
2023-03-01T13:55:26.298Z,8.80
2023-03-01T13:58:00.049Z,9.70
2023-03-01T14:00:29.584Z,9.90
2023-03-01T14:03:18.030Z,9.80
2023-03-01T14:06:12.813Z,9.80
2023-03-01T14:08:42.472Z,8.80
2023-03-01T14:11:34.730Z,14.80
2023-03-01T14:14:28.184Z,29.00
2023-03-01T14:17:01.669Z,9.60
2023-03-01T14:19:33.623Z,9.10
2023-03-01T14:22:24.270Z,9.80
2023-03-01T14:25:06.328Z,10.40
2023-03-01T14:27:45.713Z,11.50
2023-03-01T14:30:29.112Z,22.50
2023-03-01T14:33:02.211Z,14.70
2023-03-01T14:35:32.356Z,10.40
2023-03-01T14:38:00.222Z,9.90
2023-03-01T14:40:27.902Z,10.50
2023-03-01T14:42:58.136Z,10.80
2023-03-01T14:45:28.319Z,9.80
2023-03-01T14:47:57.132Z,9.80
2023-03-01T14:50:32.368Z,11.00
2023-03-01T14:53:03.076Z,9.40
2023-03-01T14:55:39.750Z,12.30
2023-03-01T14:58:13.708Z,16.00
2023-03-01T15:00:52.185Z,11.10
2023-03-01T15:03:39.764Z,10.50
2023-03-01T15:06:08.536Z,10.10
2023-03-01T15:08:37.901Z,10.20
2023-03-01T15:11:23.875Z,10.30
2023-03-01T15:13:55.486Z,9.90
2023-03-01T15:16:34.001Z,11.10
2023-03-01T15:19:04.735Z,14.00
2023-03-01T15:21:34.847Z,10.10
2023-03-01T15:24:21.025Z,12.50
2023-03-01T15:27:02.860Z,14.70
2023-03-01T15:29:34.240Z,11.50
2023-03-01T15:32:29.832Z,34.70
2023-03-01T15:34:59.390Z,26.50
2023-03-01T15:37:48.809Z,20.10
2023-03-01T15:40:32.497Z,19.30
2023-03-01T15:43:05.577Z,20.20
2023-03-01T15:45:39.527Z,21.70
2023-03-01T15:48:19.142Z,24.10
2023-03-01T15:50:55.366Z,15.50
2023-03-01T15:53:23.180Z,16.90
2023-03-01T15:55:51.371Z,17.50
2023-03-01T15:58:22.155Z,16.70
2023-03-01T16:01:00.811Z,18.60
2023-03-01T16:03:30.090Z,16.90
2023-03-01T16:05:57.961Z,17.80
2023-03-01T16:08:25.775Z,17.10
2023-03-01T16:10:55.474Z,17.70
2023-03-01T16:13:23.391Z,19.30
2023-03-01T16:15:51.139Z,19.80
2023-03-01T16:18:18.821Z,17.90
2023-03-01T16:20:46.438Z,16.20
2023-03-01T16:23:15.349Z,19.40
2023-03-01T16:25:43.103Z,16.60
2023-03-01T16:28:11.119Z,17.10
2023-03-01T16:30:40.726Z,15.90
2023-03-01T16:33:24.180Z,15.20
2023-03-01T16:35:56.312Z,16.30
2023-03-01T16:38:24.061Z,20.40
2023-03-01T16:40:53.006Z,23.20
2023-03-01T16:43:21.064Z,23.50
2023-03-01T16:45:48.781Z,22.10
2023-03-01T16:48:16.499Z,20.70
2023-03-01T16:50:44.157Z,19.20
2023-03-01T16:53:12.218Z,22.30
2023-03-01T16:55:46.111Z,27.80
2023-03-01T16:58:13.891Z,36.80
2023-03-01T17:00:41.505Z,35.30
2023-03-01T17:03:09.188Z,34.40
2023-03-01T17:05:37.008Z,28.70
2023-03-01T17:08:04.614Z,33.10
2023-03-01T17:10:33.907Z,37.00
2023-03-01T17:13:01.612Z,35.00
2023-03-01T17:15:29.497Z,30.80
2023-03-01T17:17:57.186Z,30.20
2023-03-01T17:20:25.027Z,27.40
2023-03-01T17:22:53.203Z,29.40
2023-03-01T17:25:20.854Z,25.10
2023-03-01T17:27:48.494Z,28.70
2023-03-01T17:30:16.473Z,53.70
2023-03-01T17:32:44.494Z,180.80
2023-03-01T17:35:14.191Z,185.50
2023-03-01T17:37:46.541Z,188.80
2023-03-01T17:40:14.433Z,201.10
2023-03-01T17:42:42.195Z,233.30
2023-03-01T17:45:10.430Z,186.10
2023-03-01T17:47:38.482Z,127.20
2023-03-01T17:50:08.196Z,105.80
2023-03-01T17:52:35.944Z,187.50
2023-03-01T17:55:05.369Z,400.60
2023-03-01T17:57:33.004Z,383.40
2023-03-01T18:00:00.806Z,199.00
2023-03-01T18:02:28.931Z,125.20
2023-03-01T18:04:58.987Z,110.10
2023-03-01T18:07:27.863Z,98.10
2023-03-01T18:09:56.113Z,96.50
2023-03-01T18:12:23.763Z,88.40
2023-03-01T18:14:53.668Z,85.40
2023-03-01T18:17:25.600Z,68.80
2023-03-01T18:19:53.437Z,84.80
2023-03-01T18:22:21.093Z,69.00
2023-03-01T18:24:48.722Z,66.20
2023-03-01T18:27:16.492Z,65.30
2023-03-01T18:29:44.390Z,68.70
2023-03-01T18:32:12.130Z,72.10
2023-03-01T18:34:39.927Z,96.00
2023-03-01T18:37:09.962Z,118.60
2023-03-01T18:39:38.367Z,96.30
2023-03-01T18:42:06.091Z,107.20
2023-03-01T18:44:34.406Z,111.20
2023-03-01T18:47:02.316Z,91.30
2023-03-01T18:49:30.131Z,59.00
2023-03-01T18:51:57.819Z,70.50
2023-03-01T18:54:25.829Z,91.20
2023-03-01T18:56:53.456Z,136.30
2023-03-01T18:59:21.075Z,108.90
2023-03-01T19:01:48.939Z,127.90
2023-03-01T19:04:16.620Z,97.90
2023-03-01T19:06:44.221Z,63.90
2023-03-01T19:09:12.008Z,59.90
2023-03-01T19:11:40.694Z,58.00
2023-03-01T19:14:08.772Z,55.50
2023-03-01T19:16:36.560Z,58.60
2023-03-01T19:19:06.332Z,53.40
2023-03-01T19:21:34.596Z,51.60
2023-03-01T19:24:03.143Z,68.20
2023-03-01T19:26:31.556Z,72.00
2023-03-01T19:28:59.959Z,55.70
2023-03-01T19:31:29.627Z,62.40
2023-03-01T19:34:10.037Z,66.30
2023-03-01T19:36:43.253Z,58.90
2023-03-01T19:39:13.534Z,50.60
2023-03-01T19:41:42.545Z,51.30
2023-03-01T19:44:11.164Z,45.10
2023-03-01T19:46:39.206Z,40.10
2023-03-01T19:49:08.175Z,39.10
2023-03-01T19:51:38.928Z,38.10
2023-03-01T19:54:07.386Z,39.40
2023-03-01T19:56:35.687Z,47.90
2023-03-01T19:59:04.564Z,57.70
2023-03-01T20:01:34.421Z,56.90
2023-03-01T20:04:03.907Z,62.80
2023-03-01T20:06:32.123Z,80.30
2023-03-01T20:09:12.095Z,72.70
2023-03-01T20:11:46.881Z,83.90
2023-03-01T20:14:14.639Z,70.90
2023-03-01T20:16:42.344Z,74.00
2023-03-01T20:19:10.068Z,79.80
2023-03-01T20:21:37.823Z,79.10
2023-03-01T20:24:05.768Z,68.90
2023-03-01T20:26:33.952Z,85.40
2023-03-01T20:29:01.911Z,71.40
2023-03-01T20:31:29.903Z,69.30
2023-03-01T20:33:59.364Z,68.70
2023-03-01T20:36:27.803Z,68.10
2023-03-01T20:38:56.191Z,63.40
2023-03-01T20:41:28.634Z,53.60
2023-03-01T20:43:58.602Z,48.40
2023-03-01T20:46:30.021Z,57.30
2023-03-01T20:48:57.802Z,44.00
2023-03-01T20:51:25.460Z,38.40
2023-03-01T20:53:53.378Z,37.80
2023-03-01T20:56:21.941Z,36.00
2023-03-01T20:59:05.825Z,37.40
2023-03-01T21:01:33.578Z,38.90
2023-03-01T21:04:01.674Z,42.50
2023-03-01T21:06:29.413Z,44.40
2023-03-01T21:08:57.682Z,47.70
2023-03-01T21:11:25.353Z,43.90
2023-03-01T21:13:54.000Z,46.70
2023-03-01T21:16:22.012Z,47.20
2023-03-01T21:18:50.267Z,50.30
2023-03-01T21:21:20.339Z,47.30
2023-03-01T21:23:48.080Z,50.30
2023-03-01T21:26:19.344Z,52.80
2023-03-01T21:28:48.217Z,47.50
2023-03-01T21:31:22.401Z,49.50
2023-03-01T21:33:52.773Z,50.90
2023-03-01T21:36:22.176Z,58.40
2023-03-01T21:38:51.232Z,62.90
2023-03-01T21:41:22.232Z,64.90
2023-03-01T21:43:51.676Z,57.90
2023-03-01T21:46:21.586Z,45.20
2023-03-01T21:48:50.742Z,41.10
2023-03-01T21:51:20.372Z,43.40
2023-03-01T21:53:48.176Z,44.30
2023-03-01T21:56:27.123Z,42.20
2023-03-01T21:58:55.579Z,40.60
2023-03-01T22:01:25.797Z,42.10
2023-03-01T22:03:55.130Z,44.90
2023-03-01T22:06:34.256Z,44.90
2023-03-01T22:09:06.014Z,45.80
2023-03-01T22:11:37.049Z,46.60
2023-03-01T22:14:05.874Z,47.80
2023-03-01T22:16:35.503Z,49.50
2023-03-01T22:19:04.638Z,50.50
2023-03-01T22:21:32.943Z,48.90
2023-03-01T22:24:01.079Z,46.90
2023-03-01T22:26:32.062Z,45.20
2023-03-01T22:29:01.930Z,43.80
2023-03-01T22:31:29.960Z,44.20
2023-03-01T22:33:58.534Z,42.60
2023-03-01T22:36:27.055Z,43.90
2023-03-01T22:39:00.188Z,43.10
2023-03-01T22:41:30.089Z,42.10
2023-03-01T22:43:57.799Z,42.60
2023-03-01T22:46:27.111Z,42.30
2023-03-01T22:48:55.729Z,41.00
2023-03-01T22:51:35.154Z,39.90
2023-03-01T22:54:03.520Z,38.70
2023-03-01T22:56:34.000Z,38.70
2023-03-01T22:59:08.755Z,38.20
2023-03-01T23:01:37.453Z,38.30
2023-03-01T23:04:05.497Z,37.30
2023-03-01T23:06:33.681Z,38.70
2023-03-01T23:09:04.182Z,38.30
2023-03-01T23:11:31.783Z,38.10
2023-03-01T23:13:59.824Z,37.10
2023-03-01T23:16:27.535Z,35.60
2023-03-01T23:18:58.217Z,36.40
2023-03-01T23:21:26.780Z,34.90
2023-03-01T23:23:55.563Z,35.20
2023-03-01T23:26:26.851Z,36.00
2023-03-01T23:28:55.911Z,34.70
2023-03-01T23:31:23.622Z,33.90
2023-03-01T23:33:51.353Z,34.90
2023-03-01T23:36:22.405Z,33.60
2023-03-01T23:38:52.099Z,33.60
2023-03-01T23:41:22.027Z,34.10
2023-03-01T23:43:51.801Z,33.80
2023-03-01T23:46:21.279Z,34.10
2023-03-01T23:48:49.299Z,33.00
2023-03-01T23:51:17.802Z,33.10
2023-03-01T23:53:55.962Z,34.80
2023-03-01T23:56:26.139Z,34.90
2023-03-01T23:58:55.995Z,36.30
